Time;durP1;ratioP1;P1;durP2;ratioP2;P2;SDS_P1;SDS_P2;PMS_P1;PMS_P2;Temp;Humidity;BMP_temperature;BMP_pressure;BME280_temperature;BME280_humidity;BME280_pressure;Samples;Min_cycle;Max_cycle;Signal;HPM_P1;HPM_P2
2022/10/08 00:00:14;;;;;;;17.03;15.20;;;;;20.90;100591.00;;;;2057972;28;20247;-54
2022/10/08 00:01:16;;;;;;;15.07;13.50;;;;;20.80;100597.00;;;;2058551;28;20287;-53
2022/10/08 00:02:17;;;;;;;16.15;14.45;;;;;20.80;100595.00;;;;2057608;28;20219;-53
2022/10/08 00:03:18;;;;;;;15.60;14.10;;;;;20.80;100600.00;;;;2058423;28;20687;-53
2022/10/08 00:04:18;;;;;;;16.13;14.17;;;;;20.80;100605.00;;;;2057124;28;20223;-53
2022/10/08 00:05:18;;;;;;;16.40;14.27;;;;;20.80;100596.00;;;;2057192;28;20993;-53
2022/10/08 00:06:24;;;;;;;16.03;14.30;;;;;20.40;100601.00;;;;2057612;28;20671;-52
2022/10/08 00:07:24;;;;;;;15.30;13.68;;;;;20.80;100596.00;;;;2057927;28;20258;-53
2022/10/08 00:08:25;;;;;;;16.57;14.20;;;;;20.80;100597.00;;;;2058174;28;20599;-53
2022/10/08 00:09:25;;;;;;;15.80;13.40;;;;;20.80;100608.00;;;;2058611;28;20220;-53
2022/10/08 00:10:25;;;;;;;17.97;13.97;;;;;20.80;100606.00;;;;2058503;28;20219;-53
2022/10/08 00:11:31;;;;;;;15.40;13.90;;;;;20.80;100599.00;;;;2058277;28;20257;-53
2022/10/08 00:12:31;;;;;;;15.20;13.60;;;;;20.80;100604.00;;;;2056844;28;20273;-53
2022/10/08 00:13:41;;;;;;;14.50;12.83;;;;;20.80;100602.00;;;;2057672;28;20666;-53
2022/10/08 00:14:41;;;;;;;16.70;13.35;;;;;20.80;100597.00;;;;2058116;28;20222;-53
2022/10/08 00:15:42;;;;;;;15.50;13.27;;;;;20.80;100592.00;;;;2058477;28;20711;-53
2022/10/08 00:16:42;;;;;;;15.07;12.50;;;;;20.80;100593.00;;;;2058180;28;20747;-54
2022/10/08 00:17:42;;;;;;;13.97;12.57;;;;;20.80;100595.00;;;;2058518;28;20238;-53
2022/10/08 00:18:44;;;;;;;14.67;13.07;;;;;20.80;100599.00;;;;2057879;28;20222;-53
2022/10/08 00:19:44;;;;;;;15.13;13.52;;;;;20.80;100595.00;;;;2057218;28;20214;-57
2022/10/08 00:20:45;;;;;;;13.23;11.83;;;;;20.80;100596.00;;;;2057758;28;20217;-54
2022/10/08 00:21:49;;;;;;;13.80;12.40;;;;;20.80;100593.00;;;;2057393;28;20216;-53
2022/10/08 00:22:50;;;;;;;12.52;11.23;;;;;20.80;100593.00;;;;2057581;28;20214;-53
2022/10/08 00:23:50;;;;;;;14.40;12.90;;;;;20.80;100595.00;;;;2056817;28;20237;-53
2022/10/08 00:24:52;;;;;;;14.10;12.17;;;;;20.80;100591.00;;;;2057443;28;20215;-53
2022/10/08 00:25:52;;;;;;;15.50;12.93;;;;;20.70;100593.00;;;;2057438;28;20223;-53
2022/10/08 00:26:52;;;;;;;13.80;11.00;;;;;20.70;100593.00;;;;2057836;28;20539;-54
2022/10/08 00:27:53;;;;;;;12.20;11.00;;;;;20.80;100594.00;;;;2058458;28;20211;-53
2022/10/08 00:28:55;;;;;;;15.83;12.77;;;;;20.70;100582.00;;;;2058401;28;20233;-53
2022/10/08 00:29:55;;;;;;;12.52;11.07;;;;;20.80;100590.00;;;;2058080;28;20310;-53
2022/10/08 00:30:56;;;;;;;12.90;11.20;;;;;20.70;100587.00;;;;2057799;28;20226;-53
2022/10/08 00:31:56;;;;;;;12.50;10.80;;;;;20.80;100588.00;;;;2056701;28;20234;-53
2022/10/08 00:32:57;;;;;;;12.17;10.73;;;;;20.70;100588.00;;;;2057340;28;20225;-54
2022/10/08 00:33:59;;;;;;;12.30;10.63;;;;;20.70;100587.00;;;;2057232;28;20216;-54
2022/10/08 00:34:59;;;;;;;12.50;10.38;;;;;20.70;100587.00;;;;2057703;28;20614;-54
2022/10/08 00:36:00;;;;;;;12.80;11.30;;;;;20.70;100583.00;;;;2057445;28;20203;-53
2022/10/08 00:37:00;;;;;;;12.63;10.48;;;;;20.70;100580.00;;;;2057207;28;20238;-53
2022/10/08 00:38:01;;;;;;;12.40;11.07;;;;;20.70;100580.00;;;;2058208;28;20218;-53
2022/10/08 00:39:13;;;;;;;12.18;10.65;;;;;20.70;100573.00;;;;2059051;28;20955;-53
2022/10/08 00:40:13;;;;;;;11.30;10.15;;;;;20.70;100592.00;;;;2059162;28;20277;-53
2022/10/08 00:41:19;;;;;;;11.30;10.20;;;;;20.70;100577.00;;;;2059282;28;20290;-54
2022/10/08 00:42:20;;;;;;;10.48;9.27;;;;;20.70;100580.00;;;;2056760;28;20216;-54
2022/10/08 00:43:41;;;;;;;11.40;10.00;;;;;20.70;100577.00;;;;2058993;28;20594;-53
2022/10/08 00:45:00;;;;;;;10.73;9.60;;;;;20.70;100580.00;;;;2059182;28;20452;-54
2022/10/08 00:46:00;;;;;;;12.68;11.00;;;;;20.70;100511.00;;;;2059015;28;20354;-53
2022/10/08 00:47:00;;;;;;;11.73;10.50;;;;;20.70;100580.00;;;;2049897;28;20635;-54
2022/10/08 00:48:01;;;;;;;13.13;10.50;;;;;20.70;100577.00;;;;2051072;28;20287;-53
2022/10/08 00:49:04;;;;;;;11.03;9.83;;;;;20.70;100590.00;;;;2059683;28;20569;-53
2022/10/08 00:50:07;;;;;;;11.40;10.18;;;;;20.70;100568.00;;;;2051000;28;21119;-54
2022/10/08 00:51:08;;;;;;;10.45;9.27;;;;;20.70;100572.00;;;;2051128;28;20211;-53
2022/10/08 00:52:08;;;;;;;11.50;10.23;;;;;20.70;100569.00;;;;2057202;28;20262;-53
2022/10/08 00:53:09;;;;;;;12.67;10.70;;;;;20.60;100567.00;;;;2058428;28;20214;-54
2022/10/08 00:54:10;;;;;;;10.93;9.17;;;;;20.60;100573.00;;;;2058713;28;20295;-53
2022/10/08 00:55:10;;;;;;;10.97;9.73;;;;;20.60;100586.00;;;;2050504;28;20462;-53
2022/10/08 00:56:11;;;;;;;10.17;9.03;;;;;20.70;100575.00;;;;2043344;28;20716;-53
2022/10/08 00:57:11;;;;;;;11.30;9.27;;;;;20.60;100579.00;;;;2050101;28;20217;-54
2022/10/08 00:58:17;;;;;;;9.80;8.70;;;;;20.60;100580.00;;;;2058176;28;20221;-53
2022/10/08 00:59:18;;;;;;;10.85;8.70;;;;;20.60;100580.00;;;;2053596;28;20214;-53
2022/10/08 01:00:23;;;;;;;11.57;9.43;;;;;20.60;100575.00;;;;2050428;28;20246;-54
2022/10/08 01:01:23;;;;;;;11.10;8.93;;;;;20.60;100576.00;;;;2058080;28;20465;-53
2022/10/08 01:02:24;;;;;;;10.63;8.50;;;;;20.60;100572.00;;;;2057609;28;20254;-54
2022/10/08 01:03:24;;;;;;;11.80;9.33;;;;;20.60;100570.00;;;;2058333;28;20211;-54
2022/10/08 01:04:25;;;;;;;12.10;8.60;;;;;20.60;100572.00;;;;2056241;28;20273;-53
2022/10/08 01:05:54;;;;;;;9.40;8.20;;;;;20.60;100576.00;;;;2058060;28;20267;-54
2022/10/08 01:07:04;;;;;;;10.70;8.93;;;;;20.60;100571.00;;;;2057809;28;20219;-53
2022/10/08 01:08:12;;;;;;;10.07;8.48;;;;;20.60;100570.00;;;;2043780;28;20349;-53
2022/10/08 01:09:34;;;;;;;11.15;7.97;;;;;20.60;100573.00;;;;2043325;28;20224;-53
2022/10/08 01:10:37;;;;;;;9.82;8.82;;;;;20.60;100570.00;;;;2052781;28;20250;-53
2022/10/08 01:11:46;;;;;;;8.20;7.25;;;;;20.60;100567.00;;;;2057393;28;20709;-54
2022/10/08 01:13:15;;;;;;;9.73;8.70;;;;;20.60;100578.00;;;;2058897;28;20359;-54
2022/10/08 01:14:45;;;;;;;9.20;7.53;;;;;20.60;100562.00;;;;2053878;28;20226;-53
2022/10/08 01:15:52;;;;;;;9.00;7.63;;;;;20.60;100566.00;;;;2054742;28;20219;-53
2022/10/08 01:17:30;;;;;;;8.73;7.68;;;;;20.60;100564.00;;;;2053829;28;20207;-58
2022/10/08 01:18:40;;;;;;;9.80;7.82;;;;;20.60;100572.00;;;;2042623;28;20239;-53
2022/10/08 01:20:18;;;;;;;8.57;7.45;;;;;20.60;100558.00;;;;2058758;28;20208;-53
2022/10/08 01:21:42;;;;;;;8.73;7.18;;;;;20.60;100574.00;;;;2059153;28;20234;-54
2022/10/08 01:22:54;;;;;;;8.48;7.43;;;;;20.60;100571.00;;;;2058108;28;20218;-53
2022/10/08 01:24:19;;;;;;;8.25;7.00;;;;;20.60;100567.00;;;;2058476;28;20223;-53
2022/10/08 01:25:33;;;;;;;8.20;7.35;;;;;20.60;100556.00;;;;2058236;28;20220;-53
2022/10/08 01:26:54;;;;;;;10.45;7.35;;;;;20.60;100563.00;;;;2052085;28;20238;-53
2022/10/08 01:27:59;;;;;;;8.40;6.70;;;;;20.60;100557.00;;;;2053324;28;20715;-57
2022/10/08 01:29:01;;;;;;;8.45;6.60;;;;;20.60;100557.00;;;;2058305;28;20222;-53
2022/10/08 01:30:04;;;;;;;7.85;6.88;;;;;20.60;100556.00;;;;2058327;28;20218;-53
2022/10/08 01:31:08;;;;;;;9.43;7.03;;;;;20.50;100544.00;;;;2049989;28;20310;-53
2022/10/08 01:32:12;;;;;;;7.93;6.75;;;;;20.60;100556.00;;;;2048913;28;20302;-53
2022/10/08 01:33:34;;;;;;;10.00;7.20;;;;;20.50;100559.00;;;;2050023;28;20223;-53
2022/10/08 01:34:39;;;;;;;8.70;6.57;;;;;20.60;100559.00;;;;2048959;28;20278;-53
2022/10/08 01:35:43;;;;;;;7.60;6.30;;;;;20.60;100554.00;;;;2043367;28;20220;-53
2022/10/08 01:36:46;;;;;;;8.48;6.47;;;;;20.60;100554.00;;;;2050771;28;20348;-53
2022/10/08 01:37:46;;;;;;;7.90;6.20;;;;;20.50;100559.00;;;;2050920;28;20648;-54
2022/10/08 01:38:49;;;;;;;7.10;6.03;;;;;20.60;100551.00;;;;2050446;28;20239;-54
2022/10/08 01:39:49;;;;;;;6.50;5.80;;;;;20.60;100551.00;;;;2042451;28;20305;-53
2022/10/08 01:40:51;;;;;;;7.27;6.30;;;;;20.60;100545.00;;;;2042178;28;20223;-53
2022/10/08 01:41:52;;;;;;;7.57;6.00;;;;;20.60;100550.00;;;;2048823;28;20208;-53
2022/10/08 01:42:53;;;;;;;6.88;6.18;;;;;20.50;100563.00;;;;2042509;28;20225;-53
2022/10/08 01:44:01;;;;;;;6.93;5.77;;;;;20.50;100550.00;;;;2050570;28;20247;-53
2022/10/08 01:45:08;;;;;;;7.35;5.90;;;;;20.50;100550.00;;;;2050678;28;20219;-53
2022/10/08 01:46:17;;;;;;;8.98;6.60;;;;;20.50;100557.00;;;;2036523;29;20217;-54
2022/10/08 01:47:20;;;;;;;6.68;5.85;;;;;20.50;100551.00;;;;2037772;29;20225;-54
2022/10/08 01:48:22;;;;;;;7.25;5.70;;;;;20.50;100546.00;;;;2043231;28;20217;-53
2022/10/08 01:49:23;;;;;;;7.28;6.10;;;;;20.50;100554.00;;;;2050162;28;20220;-54
2022/10/08 01:50:27;;;;;;;7.30;5.60;;;;;20.50;100556.00;;;;2043023;28;20226;-53
2022/10/08 01:51:31;;;;;;;6.63;5.82;;;;;20.60;100556.00;;;;2050865;28;20782;-53
2022/10/08 01:52:35;;;;;;;8.52;6.32;;;;;20.50;100497.00;;;;2049411;28;20309;-53
2022/10/08 01:53:37;;;;;;;7.80;4.72;;;;;20.50;100536.00;;;;2052896;28;20235;-54
2022/10/08 01:54:37;;;;;;;6.75;5.20;;;;;20.50;100549.00;;;;2053328;28;20766;-53
2022/10/08 01:55:39;;;;;;;7.57;5.83;;;;;20.50;100557.00;;;;2042742;28;20209;-53
2022/10/08 01:56:40;;;;;;;6.57;5.45;;;;;20.50;100551.00;;;;2060048;28;20214;-54
2022/10/08 01:57:40;;;;;;;7.13;5.70;;;;;20.50;100555.00;;;;2050210;28;20212;-54
2022/10/08 01:58:42;;;;;;;6.00;5.40;;;;;20.50;100552.00;;;;2050111;28;20204;-53
2022/10/08 01:59:46;;;;;;;5.63;5.00;;;;;20.50;100546.00;;;;2057672;28;20219;-53
2022/10/08 02:00:47;;;;;;;7.75;5.43;;;;;20.50;100542.00;;;;2057772;28;20630;-52
2022/10/08 02:01:58;;;;;;;9.37;5.80;;;;;20.50;100567.00;;;;2057502;28;20246;-53
2022/10/08 02:02:58;;;;;;;6.20;5.47;;;;;20.50;100565.00;;;;2051903;28;20231;-53
2022/10/08 02:05:17;;;;;;;6.55;5.30;;;;;20.50;100548.00;;;;2052044;28;20223;-53
2022/10/08 02:06:18;;;;;;;8.13;6.20;;;;;20.50;100546.00;;;;2052269;28;20216;-54
2022/10/08 02:07:21;;;;;;;8.02;4.75;;;;;20.50;100551.00;;;;2042651;28;20217;-53
2022/10/08 02:08:22;;;;;;;6.13;4.60;;;;;20.50;100550.00;;;;2043278;28;20299;-53
2022/10/08 02:09:29;;;;;;;5.30;4.80;;;;;20.50;100557.00;;;;2058513;28;20261;-53
2022/10/08 02:10:30;;;;;;;5.97;4.60;;;;;20.50;100549.00;;;;2057744;28;20661;-53
2022/10/08 02:11:30;;;;;;;5.90;5.00;;;;;20.50;100549.00;;;;2057505;28;20218;-53
2022/10/08 02:12:30;;;;;;;5.10;4.60;;;;;20.50;100548.00;;;;2056542;28;20451;-56
2022/10/08 02:13:31;;;;;;;5.07;4.33;;;;;20.50;100550.00;;;;2057976;28;20355;-55
2022/10/08 02:14:31;;;;;;;6.87;5.00;;;;;20.50;100544.00;;;;2057053;28;20231;-54
2022/10/08 02:15:35;;;;;;;5.37;4.40;;;;;20.50;100539.00;;;;2050624;28;20219;-53
2022/10/08 02:16:38;;;;;;;7.32;5.22;;;;;20.50;100548.00;;;;2051034;28;20211;-53
2022/10/08 02:17:42;;;;;;;6.43;5.15;;;;;20.50;100553.00;;;;2041896;28;20238;-53
2022/10/08 02:18:50;;;;;;;6.53;4.75;;;;;20.50;100545.00;;;;2050065;28;20962;-53
2022/10/08 02:19:59;;;;;;;5.95;4.53;;;;;20.50;100542.00;;;;2051298;28;20339;-54
2022/10/08 02:21:06;;;;;;;6.90;4.65;;;;;20.50;100543.00;;;;2058544;28;20239;-54
2022/10/08 02:22:06;;;;;;;5.20;4.70;;;;;20.50;100547.00;;;;2048696;28;20256;-53
2022/10/08 02:23:21;;;;;;;5.77;4.63;;;;;20.50;100544.00;;;;2032294;28;20217;-53
2022/10/08 02:24:32;;;;;;;5.93;4.70;;;;;20.50;100532.00;;;;2044069;28;20715;-53
2022/10/08 02:25:45;;;;;;;5.63;4.30;;;;;20.50;100543.00;;;;2050556;28;20684;-56
2022/10/08 02:26:50;;;;;;;5.85;4.75;;;;;20.50;100548.00;;;;2051758;28;20314;-53
2022/10/08 02:27:50;;;;;;;5.00;4.00;;;;;20.20;100536.00;;;;2050180;28;21085;-53
2022/10/08 02:29:02;;;;;;;6.10;4.80;;;;;20.50;100542.00;;;;2057894;28;20262;-53
2022/10/08 02:30:09;;;;;;;5.45;4.25;;;;;20.50;100538.00;;;;2050005;28;20715;-57
2022/10/08 02:31:17;;;;;;;6.32;4.50;;;;;20.50;100539.00;;;;2038498;29;20264;-53
2022/10/08 02:32:30;;;;;;;5.07;3.80;;;;;20.50;100543.00;;;;2044618;28;20220;-53
2022/10/08 02:33:32;;;;;;;6.65;4.15;;;;;20.50;100547.00;;;;2045584;28;20838;-54
2022/10/08 02:34:36;;;;;;;5.75;4.05;;;;;20.50;100529.00;;;;2047673;28;20862;-53
2022/10/08 02:35:41;;;;;;;5.03;4.13;;;;;20.40;100530.00;;;;2049879;28;20220;-53
2022/10/08 02:36:44;;;;;;;5.75;4.10;;;;;20.40;100531.00;;;;2050139;28;20216;-53
2022/10/08 02:37:46;;;;;;;5.35;4.28;;;;;20.50;100535.00;;;;2049184;28;20303;-53
2022/10/08 02:38:54;;;;;;;5.50;4.40;;;;;20.40;100534.00;;;;2027221;29;20214;-53
2022/10/08 02:40:02;;;;;;;5.40;4.03;;;;;20.40;100532.00;;;;2036184;28;20205;-53
2022/10/08 02:41:03;;;;;;;6.25;4.05;;;;;20.40;100528.00;;;;2047617;28;20223;-53
2022/10/08 02:42:06;;;;;;;5.57;4.00;;;;;20.40;100516.00;;;;2041317;28;20239;-53
2022/10/08 02:43:09;;;;;;;5.28;3.75;;;;;20.50;100526.00;;;;2051685;28;20462;-53
2022/10/08 02:44:19;;;;;;;5.90;4.20;;;;;20.40;100529.00;;;;2050068;28;20270;-53
2022/10/08 02:45:22;;;;;;;5.93;3.70;;;;;20.40;100530.00;;;;2051075;28;20259;-53
2022/10/08 02:46:24;;;;;;;5.43;4.07;;;;;20.50;100531.00;;;;2042318;28;20794;-53
2022/10/08 02:47:26;;;;;;;5.18;3.92;;;;;20.40;100519.00;;;;2045529;28;20743;-53
2022/10/08 02:48:30;;;;;;;4.50;3.63;;;;;20.50;100519.00;;;;2046069;28;20252;-54
2022/10/08 02:49:32;;;;;;;4.65;3.70;;;;;20.40;100527.00;;;;2042915;28;20291;-53
2022/10/08 02:50:33;;;;;;;5.82;3.80;;;;;20.50;100523.00;;;;2050127;28;20219;-53
2022/10/08 02:51:36;;;;;;;5.40;4.10;;;;;20.40;100518.00;;;;2049422;28;20266;-53
2022/10/08 02:52:39;;;;;;;5.95;4.32;;;;;20.40;100523.00;;;;2041068;28;20303;-55
2022/10/08 02:53:39;;;;;;;4.93;3.50;;;;;20.40;100521.00;;;;2050483;28;20242;-53
2022/10/08 02:54:41;;;;;;;6.00;3.70;;;;;20.40;100536.00;;;;2057827;28;20219;-53
2022/10/08 02:55:50;;;;;;;6.00;4.00;;;;;20.40;100528.00;;;;2050323;28;20212;-53
2022/10/08 02:56:58;;;;;;;5.60;3.25;;;;;20.40;100525.00;;;;2036049;29;20307;-53
2022/10/08 02:58:06;;;;;;;4.57;3.60;;;;;20.40;100538.00;;;;2045298;28;20220;-53
2022/10/08 02:59:09;;;;;;;4.20;3.78;;;;;20.50;100535.00;;;;2042390;28;20212;-54
2022/10/08 03:00:10;;;;;;;5.45;3.65;;;;;20.40;100536.00;;;;2041255;28;20223;-53
2022/10/08 03:01:13;;;;;;;5.23;3.80;;;;;20.40;100535.00;;;;2056910;28;20684;-53
2022/10/08 03:02:18;;;;;;;6.10;3.75;;;;;20.40;100556.00;;;;2057372;28;20306;-53
2022/10/08 03:03:30;;;;;;;6.07;3.17;;;;;20.40;100546.00;;;;2045892;28;20213;-53
2022/10/08 03:04:31;;;;;;;4.47;3.28;;;;;20.20;100550.00;;;;2036090;28;20317;-53
2022/10/08 03:05:31;;;;;;;4.37;3.07;;;;;20.40;100556.00;;;;2050118;28;20226;-53
2022/10/08 03:06:31;;;;;;;5.33;3.93;;;;;20.40;100548.00;;;;2056893;28;20858;-53
2022/10/08 03:07:33;;;;;;;5.03;3.80;;;;;20.40;100542.00;;;;2041387;28;20619;-54
2022/10/08 03:08:35;;;;;;;4.28;3.35;;;;;20.40;100528.00;;;;2042434;28;20227;-53
2022/10/08 03:09:37;;;;;;;3.58;2.92;;;;;20.20;100530.00;;;;2042229;28;20225;-53
2022/10/08 03:10:38;;;;;;;5.03;3.40;;;;;20.40;100553.00;;;;2042569;28;20271;-54
2022/10/08 03:11:38;;;;;;;5.10;3.40;;;;;20.40;100556.00;;;;2045383;28;20266;-53
2022/10/08 03:12:38;;;;;;;3.67;3.07;;;;;20.40;100548.00;;;;2041686;28;20228;-53
2022/10/08 03:13:40;;;;;;;5.50;3.37;;;;;20.40;100552.00;;;;2048253;28;20208;-53
2022/10/08 03:14:42;;;;;;;5.63;3.30;;;;;20.40;100556.00;;;;2048407;28;20306;-53
2022/10/08 03:15:43;;;;;;;4.50;3.08;;;;;20.40;100534.00;;;;2045659;28;20295;-53
2022/10/08 03:16:44;;;;;;;4.88;3.45;;;;;20.40;100552.00;;;;2050120;28;20291;-53
2022/10/08 03:17:45;;;;;;;4.93;3.25;;;;;20.40;100549.00;;;;2041955;28;20775;-54
2022/10/08 03:18:45;;;;;;;5.20;3.00;;;;;20.40;100561.00;;;;2041131;28;20216;-53
2022/10/08 03:19:45;;;;;;;3.87;3.10;;;;;20.40;100561.00;;;;2050230;28;20207;-53
2022/10/08 03:20:48;;;;;;;3.77;2.93;;;;;20.40;100558.00;;;;2055263;28;20212;-53
2022/10/08 03:21:49;;;;;;;3.75;2.70;;;;;20.20;100560.00;;;;2057300;28;20238;-53
2022/10/08 03:22:49;;;;;;;4.17;2.70;;;;;20.40;100557.00;;;;2056321;28;20213;-53
2022/10/08 03:23:49;;;;;;;4.73;3.30;;;;;20.40;100559.00;;;;2057166;28;20446;-53
2022/10/08 03:24:50;;;;;;;4.73;3.00;;;;;20.40;100558.00;;;;2057334;28;20290;-53
2022/10/08 03:25:50;;;;;;;5.83;2.90;;;;;20.40;100567.00;;;;2057553;28;20234;-54
2022/10/08 03:26:51;;;;;;;4.97;3.50;;;;;20.40;100570.00;;;;2057841;28;20211;-54
2022/10/08 03:27:52;;;;;;;4.18;3.10;;;;;20.40;100562.00;;;;2057481;28;20252;-53
2022/10/08 03:28:52;;;;;;;3.87;2.87;;;;;20.40;100577.00;;;;2058023;28;21049;-53
2022/10/08 03:29:56;;;;;;;4.50;3.03;;;;;20.40;100562.00;;;;2057970;28;20597;-53
2022/10/08 03:30:56;;;;;;;3.83;2.88;;;;;20.40;100569.00;;;;2057951;28;20216;-54
2022/10/08 03:31:56;;;;;;;4.03;3.53;;;;;20.40;100561.00;;;;2056817;28;20257;-54
2022/10/08 03:32:57;;;;;;;3.20;2.63;;;;;20.40;100574.00;;;;2057908;28;20774;-54
2022/10/08 03:33:57;;;;;;;4.80;3.33;;;;;20.40;100569.00;;;;2058312;28;20211;-54
2022/10/08 03:34:57;;;;;;;4.43;2.70;;;;;20.30;100569.00;;;;2058767;28;20262;-53
2022/10/08 03:35:58;;;;;;;6.77;2.90;;;;;20.40;100569.00;;;;2057139;28;20222;-53
2022/10/08 03:36:58;;;;;;;4.43;2.93;;;;;20.30;100568.00;;;;2063908;23;20261;-54
2022/10/08 03:37:58;;;;;;;3.70;2.60;;;;;20.30;100569.00;;;;2049962;28;20219;-59
2022/10/08 03:38:58;;;;;;;4.53;3.03;;;;;20.40;100570.00;;;;2048231;28;20262;-56
2022/10/08 03:39:59;;;;;;;5.30;3.03;;;;;20.40;100574.00;;;;2047302;28;20212;-54
2022/10/08 03:40:59;;;;;;;3.30;2.47;;;;;20.40;100559.00;;;;2046130;28;20219;-53
2022/10/08 03:42:00;;;;;;;4.90;3.10;;;;;20.40;100571.00;;;;2045690;28;20244;-54
2022/10/08 03:43:00;;;;;;;3.50;2.77;;;;;20.30;100575.00;;;;2046007;28;20247;-54
2022/10/08 03:44:00;;;;;;;3.50;2.77;;;;;20.30;100578.00;;;;2046357;28;20242;-54
2022/10/08 03:45:01;;;;;;;3.30;2.50;;;;;20.30;100580.00;;;;2046497;28;20695;-59
2022/10/08 03:46:01;;;;;;;3.63;2.77;;;;;20.40;100581.00;;;;2046322;28;20597;-55
2022/10/08 03:47:02;;;;;;;3.60;2.50;;;;;20.30;100578.00;;;;2043827;28;20227;-53
2022/10/08 03:48:02;;;;;;;4.03;2.63;;;;;20.30;100586.00;;;;2045944;28;20238;-54
2022/10/08 03:49:02;;;;;;;4.17;2.63;;;;;20.40;100583.00;;;;2046375;28;20239;-53
2022/10/08 03:50:03;;;;;;;5.27;2.93;;;;;20.30;100601.00;;;;2046426;28;20224;-53
2022/10/08 03:51:11;;;;;;;3.83;2.80;;;;;20.30;100586.00;;;;2048885;28;20227;-57
2022/10/08 03:52:11;;;;;;;3.95;2.67;;;;;20.30;100589.00;;;;2052697;28;20220;-55
2022/10/08 03:53:12;;;;;;;4.13;2.60;;;;;20.30;100590.00;;;;2053068;28;20261;-57
2022/10/08 03:54:12;;;;;;;5.00;2.80;;;;;20.30;100588.00;;;;2053942;28;20282;-54
2022/10/08 03:55:12;;;;;;;3.77;2.90;;;;;20.30;100597.00;;;;2054245;28;20505;-58
2022/10/08 03:56:15;;;;;;;4.60;2.83;;;;;20.30;100596.00;;;;2054100;28;20219;-57
2022/10/08 03:57:15;;;;;;;3.70;2.42;;;;;20.40;100603.00;;;;2050205;28;20256;-56
2022/10/08 03:58:16;;;;;;;5.43;2.83;;;;;20.40;100602.00;;;;2040222;28;20215;-57
2022/10/08 03:59:16;;;;;;;5.57;2.80;;;;;20.40;100599.00;;;;2053418;28;20218;-52
2022/10/08 04:00:16;;;;;;;3.60;2.77;;;;;20.30;100594.00;;;;2057808;28;20777;-55
2022/10/08 04:01:17;;;;;;;6.80;3.30;;;;;20.30;100591.00;;;;2062130;28;20211;-54
2022/10/08 04:02:17;;;;;;;4.60;2.60;;;;;20.30;100595.00;;;;2061545;28;20211;-55
2022/10/08 04:03:17;;;;;;;4.70;2.67;;;;;20.30;100591.00;;;;2062217;28;20238;-56
2022/10/08 04:04:18;;;;;;;3.17;2.53;;;;;20.30;100597.00;;;;2061144;28;20226;-57
2022/10/08 04:05:18;;;;;;;3.90;2.50;;;;;20.30;100592.00;;;;2062285;28;20219;-55
2022/10/08 04:06:18;;;;;;;7.60;2.87;;;;;20.30;100594.00;;;;2062083;28;20218;-56
2022/10/08 04:07:19;;;;;;;4.57;2.60;;;;;20.30;100589.00;;;;2061064;28;20250;-54
2022/10/08 04:08:19;;;;;;;4.40;2.60;;;;;20.30;100594.00;;;;2062035;28;20289;-58
2022/10/08 04:09:20;;;;;;;3.43;2.43;;;;;20.30;100594.00;;;;2062259;28;20230;-53
2022/10/08 04:10:20;;;;;;;4.03;2.30;;;;;20.30;100588.00;;;;2060398;28;20722;-55
2022/10/08 04:11:20;;;;;;;3.80;2.77;;;;;20.30;100588.00;;;;2062016;28;20265;-54
2022/10/08 04:12:21;;;;;;;3.20;2.50;;;;;20.30;100588.00;;;;2059615;28;20211;-54
2022/10/08 04:13:21;;;;;;;4.67;2.67;;;;;20.30;100583.00;;;;2063396;28;20285;-52
2022/10/08 04:14:21;;;;;;;3.90;2.43;;;;;20.30;100587.00;;;;2059707;28;20277;-51
2022/10/08 04:15:22;;;;;;;3.10;2.20;;;;;20.30;100577.00;;;;2059974;28;20239;-52
2022/10/08 04:16:22;;;;;;;2.77;2.37;;;;;20.30;100588.00;;;;2059866;28;20242;-52
2022/10/08 04:17:22;;;;;;;3.30;2.40;;;;;20.30;100586.00;;;;2069895;28;20215;-56
2022/10/08 04:18:23;;;;;;;3.90;2.40;;;;;20.30;100573.00;;;;2070514;28;20214;-56
2022/10/08 04:19:23;;;;;;;5.93;3.13;;;;;20.30;100572.00;;;;2063258;28;20218;-53
2022/10/08 04:20:23;;;;;;;3.80;2.50;;;;;20.30;100578.00;;;;2063164;28;20314;-54
2022/10/08 04:21:24;;;;;;;5.13;2.90;;;;;20.30;100591.00;;;;2062991;28;20215;-54
2022/10/08 04:22:24;;;;;;;5.37;3.00;;;;;20.30;100576.00;;;;2062559;28;20229;-57
2022/10/08 04:23:25;;;;;;;3.27;2.40;;;;;20.00;100587.00;;;;2056902;28;20211;-54
2022/10/08 04:24:25;;;;;;;3.20;2.50;;;;;20.30;100580.00;;;;2057831;28;20262;-56
2022/10/08 04:25:25;;;;;;;4.40;2.43;;;;;20.30;100577.00;;;;2045979;28;20576;-53
2022/10/08 04:26:26;;;;;;;4.13;2.43;;;;;20.30;100588.00;;;;2065408;28;20611;-56
2022/10/08 04:27:26;;;;;;;6.23;2.83;;;;;20.30;100582.00;;;;2064778;28;20241;-54
2022/10/08 04:28:26;;;;;;;5.00;3.10;;;;;20.30;100583.00;;;;2058133;28;20266;-52
2022/10/08 04:29:27;;;;;;;3.27;2.00;;;;;20.30;100579.00;;;;2056309;28;20208;-55
2022/10/08 04:30:28;;;;;;;4.30;2.30;;;;;20.30;100583.00;;;;2055336;28;20617;-58
2022/10/08 04:31:29;;;;;;;5.35;2.53;;;;;20.30;100592.00;;;;2055550;28;20833;-52
2022/10/08 04:32:29;;;;;;;4.37;2.50;;;;;20.30;100595.00;;;;2055117;28;20290;-57
2022/10/08 04:33:32;;;;;;;4.17;2.80;;;;;20.30;100588.00;;;;2063518;28;20209;-56
2022/10/08 04:34:32;;;;;;;3.83;2.75;;;;;20.30;100605.00;;;;2069969;28;20230;-55
2022/10/08 04:35:36;;;;;;;3.60;2.67;;;;;20.30;100591.00;;;;2070980;28;20202;-56
2022/10/08 04:36:37;;;;;;;4.40;2.28;;;;;20.30;100599.00;;;;2063330;28;20215;-52
2022/10/08 04:37:38;;;;;;;3.83;2.00;;;;;20.30;100602.00;;;;2070714;28;20220;-57
2022/10/08 04:38:38;;;;;;;4.13;2.37;;;;;20.30;100595.00;;;;2070527;28;20252;-54
2022/10/08 04:39:38;;;;;;;3.20;2.20;;;;;20.30;100602.00;;;;2063412;28;20212;-56
2022/10/08 04:40:39;;;;;;;3.00;1.87;;;;;20.30;100600.00;;;;2060283;28;20211;-53
2022/10/08 04:41:39;;;;;;;3.47;2.30;;;;;20.30;100600.00;;;;2057262;28;20215;-53
2022/10/08 04:42:39;;;;;;;3.03;2.07;;;;;20.20;100598.00;;;;2054788;28;20583;-52
2022/10/08 04:43:40;;;;;;;3.93;2.40;;;;;20.20;100597.00;;;;2052810;28;20699;-56
2022/10/08 04:44:40;;;;;;;3.57;2.37;;;;;20.20;100591.00;;;;2055196;28;20212;-55
2022/10/08 04:45:44;;;;;;;4.40;2.40;;;;;20.30;100601.00;;;;2055296;28;20248;-54
2022/10/08 04:46:45;;;;;;;3.17;2.42;;;;;20.30;100597.00;;;;2055631;28;20220;-55
2022/10/08 04:47:45;;;;;;;3.90;2.63;;;;;20.20;100600.00;;;;2055695;28;20215;-53
2022/10/08 04:48:47;;;;;;;4.43;2.10;;;;;20.20;100610.00;;;;2055247;28;20212;-52
2022/10/08 04:49:47;;;;;;;3.28;2.20;;;;;20.20;100619.00;;;;2055253;28;20612;-52
2022/10/08 04:50:47;;;;;;;2.40;1.73;;;;;20.30;100614.00;;;;2055323;28;20235;-52
2022/10/08 04:51:48;;;;;;;3.00;2.00;;;;;20.30;100616.00;;;;2054879;28;20603;-55
2022/10/08 04:52:48;;;;;;;3.47;2.33;;;;;20.20;100616.00;;;;2055302;28;20683;-52
2022/10/08 04:53:48;;;;;;;3.77;2.23;;;;;20.20;100615.00;;;;2055200;28;20694;-55
2022/10/08 04:54:49;;;;;;;3.97;2.50;;;;;20.30;100612.00;;;;2062542;28;20699;-55
2022/10/08 04:55:49;;;;;;;4.33;2.27;;;;;20.30;100612.00;;;;2068624;28;20230;-54
2022/10/08 04:56:49;;;;;;;3.70;2.30;;;;;20.30;100618.00;;;;2063126;28;20207;-53
2022/10/08 04:57:50;;;;;;;5.03;2.47;;;;;20.20;100615.00;;;;2062852;28;20299;-54
2022/10/08 04:58:50;;;;;;;4.17;2.43;;;;;20.20;100621.00;;;;2058683;28;20275;-53
2022/10/08 04:59:50;;;;;;;2.80;2.27;;;;;20.20;100622.00;;;;2055182;28;20237;-52
2022/10/08 05:00:51;;;;;;;4.10;2.20;;;;;20.30;100615.00;;;;2055378;28;20247;-57
2022/10/08 05:01:55;;;;;;;2.57;1.93;;;;;20.30;100618.00;;;;2054530;28;20691;-57
2022/10/08 05:02:55;;;;;;;4.07;2.30;;;;;20.20;100627.00;;;;2055110;28;20234;-56
2022/10/08 05:03:57;;;;;;;4.97;3.03;;;;;20.30;100631.00;;;;2055093;28;20222;-55
2022/10/08 05:04:57;;;;;;;3.65;2.40;;;;;20.20;100624.00;;;;2055467;28;20664;-55
2022/10/08 05:05:57;;;;;;;3.23;2.23;;;;;20.20;100632.00;;;;2054982;28;20215;-56
2022/10/08 05:06:57;;;;;;;3.60;2.10;;;;;20.20;100624.00;;;;2055063;28;20223;-57
2022/10/08 05:07:58;;;;;;;3.13;2.20;;;;;20.20;100620.00;;;;2055287;28;20215;-54
2022/10/08 05:09:01;;;;;;;5.27;2.10;;;;;20.20;100621.00;;;;2055057;28;20212;-58
2022/10/08 05:10:01;;;;;;;3.83;2.10;;;;;20.20;100624.00;;;;2055337;28;20299;-58
2022/10/08 05:11:02;;;;;;;4.07;2.70;;;;;20.20;100622.00;;;;2055236;28;20680;-55